Time;durP1;ratioP1;P1;durP2;ratioP2;P2;SDS_P1;SDS_P2;PMS_P1;PMS_P2;Temp;Humidity;BMP_temperature;BMP_pressure;BME280_temperature;BME280_humidity;BME280_pressure;Samples;Min_cycle;Max_cycle;Signal;HPM_P1;HPM_P2
2021/12/12 00:00:36;;;;;;;27.30;13.50;;;;;;;5.52;100.00;101746.94;5112437;28;20070;-59
2021/12/12 00:03:19;;;;;;;33.75;13.77;;;;;;;5.39;100.00;101722.53;5112482;28;20036;-57
2021/12/12 00:05:49;;;;;;;32.95;13.32;;;;;;;5.49;100.00;101744.31;5078384;28;20123;-60
2021/12/12 00:08:16;;;;;;;30.48;14.57;;;;;;;5.33;100.00;101713.81;5094096;28;20115;-58
2021/12/12 00:10:44;;;;;;;32.58;13.40;;;;;;;5.11;100.00;101682.41;5077121;28;20484;-59
2021/12/12 00:13:19;;;;;;;33.20;15.35;;;;;;;5.05;100.00;101665.88;5112050;28;20035;-61
2021/12/12 00:15:45;;;;;;;35.92;13.27;;;;;;;5.17;100.00;101672.88;5116051;28;20027;-58
2021/12/12 00:18:10;;;;;;;33.08;13.88;;;;;;;5.44;100.00;101715.59;5080835;28;20030;-56
2021/12/12 00:20:36;;;;;;;38.22;13.75;;;;;;;5.36;100.00;101703.38;5115869;28;20059;-58
2021/12/12 00:23:03;;;;;;;35.95;14.73;;;;;;;5.07;100.00;101643.28;5097597;28;20039;-60
2021/12/12 00:25:33;;;;;;;36.33;13.80;;;;;;;4.76;100.00;101594.50;5115675;28;20024;-60
2021/12/12 00:27:59;;;;;;;34.08;14.43;;;;;;;5.10;100.00;101645.91;5115849;28;20040;-60
2021/12/12 00:30:25;;;;;;;28.38;13.02;;;;;;;5.46;100.00;101719.06;5115631;28;20041;-55
2021/12/12 00:32:51;;;;;;;32.15;12.43;;;;;;;5.15;100.00;101638.06;5097408;28;20047;-59
2021/12/12 00:35:17;;;;;;;31.83;13.73;;;;;;;5.07;100.00;101632.84;5115589;28;20052;-58
2021/12/12 00:37:43;;;;;;;28.27;12.98;;;;;;;5.39;100.00;101677.28;5115530;28;20044;-60
2021/12/12 00:40:15;;;;;;;34.13;13.85;;;;;;;5.48;100.00;101699.06;5097192;28;20028;-57
2021/12/12 00:42:40;;;;;;;33.42;14.00;;;;;;;5.47;100.00;101691.22;5097213;28;20041;-56
2021/12/12 00:45:10;;;;;;;28.23;13.95;;;;;;;5.46;100.00;101692.94;5114142;28;20118;-58
2021/12/12 00:47:36;;;;;;;34.08;13.75;;;;;;;5.36;100.00;101666.84;5115531;28;20111;-57
2021/12/12 00:50:05;;;;;;;27.45;12.45;;;;;;;5.17;100.00;101642.41;5115180;28;20073;-56
2021/12/12 00:52:30;;;;;;;36.42;13.30;;;;;;;5.22;100.00;101642.44;5115089;28;20035;-58
2021/12/12 00:54:55;;;;;;;33.88;13.35;;;;;;;5.53;100.00;101696.44;5114998;28;20043;-59
2021/12/12 00:57:21;;;;;;;32.90;13.00;;;;;;;5.47;100.00;101692.09;5096915;28;20036;-58
2021/12/12 00:59:48;;;;;;;24.63;11.80;;;;;;;5.56;100.00;101699.06;5115072;28;20035;-55
2021/12/12 01:02:25;;;;;;;30.75;12.13;;;;;;;5.22;100.00;101639.84;5096761;28;20126;-56
2021/12/12 01:04:55;;;;;;;26.27;11.40;;;;;;;5.48;100.00;101669.47;5115009;28;20031;-56
2021/12/12 01:07:32;;;;;;;35.83;12.73;;;;;;;5.58;100.00;101681.66;5114859;28;20035;-59
2021/12/12 01:10:04;;;;;;;27.52;11.98;;;;;;;5.32;100.00;101637.22;5114971;28;20028;-56
2021/12/12 01:12:33;;;;;;;33.72;12.35;;;;;;;5.60;100.00;101685.16;5114955;28;20050;-58
2021/12/12 01:15:07;;;;;;;27.52;12.18;;;;;;;5.58;100.00;101677.31;5114786;28;20114;-59
2021/12/12 01:17:40;;;;;;;31.40;12.05;;;;;;;5.59;100.00;101691.25;5096476;28;20088;-58
2021/12/12 01:20:38;;;;;;;32.33;12.55;;;;;;;5.64;100.00;101681.66;5096812;28;20046;-57
2021/12/12 01:23:55;;;;;;;33.30;12.52;;;;;;;5.65;100.00;101686.03;5111495;28;20123;-56
2021/12/12 01:26:20;;;;;;;25.42;11.23;;;;;;;5.66;100.00;101686.00;5108026;28;20047;-58
2021/12/12 01:28:53;;;;;;;29.25;11.60;;;;;;;5.35;100.00;101636.38;5096310;28;20401;-59
2021/12/12 01:31:25;;;;;;;23.58;10.27;;;;;;;5.68;100.00;101691.25;5097145;28;20483;-58
2021/12/12 01:33:59;;;;;;;27.90;11.70;;;;;;;5.67;100.00;101690.38;5114210;28;20187;-58
2021/12/12 01:36:41;;;;;;;26.75;12.18;;;;;;;5.57;100.00;101674.72;5096415;28;20054;-58
2021/12/12 01:39:08;;;;;;;27.55;13.18;;;;;;;5.57;100.00;101672.09;5114493;28;20114;-59
2021/12/12 01:41:47;;;;;;;31.08;13.15;;;;;;;5.68;100.00;101683.41;5114611;28;20057;-58
2021/12/12 01:44:35;;;;;;;26.60;11.93;;;;;;;5.72;100.00;101686.91;5114160;28;20057;-60
2021/12/12 01:47:09;;;;;;;22.17;12.60;;;;;;;5.74;100.00;101690.38;5095771;28;20117;-60
2021/12/12 01:49:37;;;;;;;30.38;13.07;;;;;;;5.74;100.00;101675.59;5114200;28;20467;-61
2021/12/12 01:52:06;;;;;;;25.63;12.10;;;;;;;5.75;100.00;101671.25;5114104;28;20039;-60
2021/12/12 01:54:43;;;;;;;32.25;12.98;;;;;;;5.33;100.00;101604.16;5114094;28;20073;-60
2021/12/12 01:57:11;;;;;;;24.80;13.88;;;;;;;5.69;100.00;101672.97;5114017;28;20119;-59
2021/12/12 01:59:38;;;;;;;31.95;14.05;;;;;;;5.68;100.00;101660.78;5113840;28;20039;-59
2021/12/12 02:02:08;;;;;;;28.63;13.57;;;;;;;5.67;100.00;101651.19;5095804;28;20413;-60
2021/12/12 02:04:38;;;;;;;26.67;13.57;;;;;;;5.70;100.00;101660.78;5113923;28;20032;-62
2021/12/12 02:07:05;;;;;;;23.98;13.32;;;;;;;5.41;100.00;101605.91;5114277;28;20023;-58
2021/12/12 02:09:32;;;;;;;26.88;14.38;;;;;;;5.76;100.00;101672.97;5113666;28;20486;-58
2021/12/12 02:11:59;;;;;;;31.20;14.68;;;;;;;5.43;100.00;101617.22;5113121;28;20096;-59
2021/12/12 02:14:27;;;;;;;27.88;13.85;;;;;;;5.38;100.00;101605.91;5113611;28;20039;-60
2021/12/12 02:16:59;;;;;;;19.73;13.18;;;;;;;5.38;100.00;101605.03;5113726;28;20031;-59
2021/12/12 02:19:39;;;;;;;25.15;14.05;;;;;;;5.76;100.00;101668.63;5113618;28;20024;-58
2021/12/12 02:22:46;;;;;;;24.50;14.15;;;;;;;5.45;100.00;101605.06;5113382;28;20042;-58
2021/12/12 02:36:18;;;;;;;22.50;14.05;;;;;;;5.85;100.00;101668.66;5097780;28;20110;-60
2021/12/12 02:38:44;;;;;;;23.38;14.07;;;;;;;5.84;100.00;101656.41;5112994;28;20101;-58
2021/12/12 02:41:12;;;;;;;26.52;15.27;;;;;;;5.77;100.00;101631.19;5113032;28;20036;-58
2021/12/12 02:43:41;;;;;;;24.48;15.13;;;;;;;5.86;100.00;101639.06;5095355;28;20076;-59
2021/12/12 02:46:07;;;;;;;30.38;16.45;;;;;;;5.90;100.00;101655.56;5113001;28;20091;-58
2021/12/12 02:48:39;;;;;;;23.35;15.63;;;;;;;5.93;100.00;101639.91;5113125;28;20081;-57
2021/12/12 02:51:08;;;;;;;27.52;16.27;;;;;;;5.93;100.00;101651.22;5094941;28;20030;-58
2021/12/12 02:53:39;;;;;;;30.35;17.88;;;;;;;5.89;100.00;101649.50;5094622;28;20524;-58
2021/12/12 02:56:11;;;;;;;28.52;17.98;;;;;;;5.96;100.00;101659.06;5113124;28;20027;-58
2021/12/12 02:58:36;;;;;;;;;;;;;;;5.95;100.00;101654.72;5094875;28;20500;-59
2021/12/12 03:01:28;;;;;;;29.60;18.55;;;;;;;5.97;100.00;101660.81;5112789;28;19940;-60
2021/12/12 03:03:53;;;;;;;25.08;18.70;;;;;;;5.54;100.00;101573.72;5103313;28;20069;-58
2021/12/12 03:06:29;;;;;;;35.80;20.88;;;;;;;5.96;100.00;101664.28;5113033;28;20109;-59
2021/12/12 03:09:01;;;;;;;29.70;19.52;;;;;;;5.94;100.00;101645.13;5112961;28;20059;-57
2021/12/12 03:11:28;;;;;;;32.58;20.52;;;;;;;6.01;100.00;101646.84;5112782;28;20110;-60
2021/12/12 03:13:54;;;;;;;39.75;22.05;;;;;;;6.02;100.00;101648.63;5112649;28;20539;-59
2021/12/12 03:16:20;;;;;;;37.03;19.85;;;;;;;6.01;100.00;101648.63;5112675;28;20023;-58
2021/12/12 03:18:45;;;;;;;29.85;22.38;;;;;;;5.66;100.00;101593.75;5112919;28;20040;-58
2021/12/12 03:21:19;;;;;;;33.13;22.23;;;;;;;6.05;100.00;101647.72;5094452;28;20487;-59
2021/12/12 03:23:51;;;;;;;32.95;23.00;;;;;;;5.73;100.00;101571.09;5112620;28;20106;-59
2021/12/12 03:26:19;;;;;;;37.10;25.20;;;;;;;6.00;100.00;101615.50;5112529;28;20070;-60
2021/12/12 03:28:47;;;;;;;42.47;25.80;;;;;;;6.14;100.00;101624.19;5094398;28;20031;-59
2021/12/12 03:31:17;;;;;;;46.30;27.00;;;;;;;5.82;100.00;101560.63;5112676;28;20035;-58
2021/12/12 03:33:43;;;;;;;49.22;27.88;;;;;;;6.18;100.00;101629.44;5077501;28;20070;-58
2021/12/12 03:36:11;;;;;;;38.80;25.95;;;;;;;5.91;100.00;101576.31;5112234;28;20499;-59
2021/12/12 03:38:40;;;;;;;45.05;28.83;;;;;;;6.30;100.00;101632.91;5094666;28;20028;-59
2021/12/12 03:41:08;;;;;;;47.33;29.27;;;;;;;6.23;100.00;101622.44;5112411;28;20152;-59
2021/12/12 03:43:34;;;;;;;43.60;30.17;;;;;;;6.34;100.00;101629.38;5094091;28;20459;-59
2021/12/12 03:46:00;;;;;;;45.72;30.20;;;;;;;6.38;100.00;101642.47;5112687;28;20528;-56
2021/12/12 03:48:30;;;;;;;45.15;31.23;;;;;;;6.38;100.00;101639.84;5094495;28;20401;-59
2021/12/12 03:51:00;;;;;;;51.28;32.03;;;;;;;6.44;100.00;101659.88;5116648;28;20066;-59
2021/12/12 03:53:28;;;;;;;48.03;31.98;;;;;;;6.45;100.00;101653.78;5116333;28;20038;-58
2021/12/12 03:55:55;;;;;;;45.22;31.95;;;;;;;6.33;100.00;101640.72;5116301;28;20085;-60
2021/12/12 03:58:20;;;;;;;51.92;32.10;;;;;;;6.52;100.00;101652.88;5116359;28;20074;-58
2021/12/12 04:00:51;;;;;;;44.72;32.00;;;;;;;6.54;100.00;101648.50;5098018;28;20063;-58
2021/12/12 04:03:17;;;;;;;45.90;33.28;;;;;;;6.57;100.00;101643.25;5116214;28;20023;-60
2021/12/12 04:05:52;;;;;;;51.92;32.15;;;;;;;6.22;100.00;101581.47;5097969;28;20060;-57
2021/12/12 04:08:18;;;;;;;49.40;34.20;;;;;;;6.65;100.00;101654.59;5097784;28;20095;-59
2021/12/12 04:10:44;;;;;;;44.60;31.48;;;;;;;6.65;100.00;101651.97;5080674;28;20127;-59
2021/12/12 04:13:09;;;;;;;45.55;32.25;;;;;;;6.52;100.00;101614.50;5097876;28;20057;-60
2021/12/12 04:15:36;;;;;;;46.88;32.97;;;;;;;6.58;100.00;101617.09;5116019;28;20023;-58
2021/12/12 04:18:03;;;;;;;45.22;32.97;;;;;;;6.47;100.00;101600.59;5115896;28;20179;-60
2021/12/12 04:20:37;;;;;;;58.67;34.85;;;;;;;6.42;100.00;101589.25;5097850;28;20040;-59
2021/12/12 04:23:07;;;;;;;50.22;33.40;;;;;;;6.74;100.00;101646.72;5115794;28;20064;-57
2021/12/12 04:25:33;;;;;;;48.50;33.58;;;;;;;6.36;100.00;101564.91;5097698;28;20123;-57
2021/12/12 04:27:58;;;;;;;48.55;33.10;;;;;;;6.74;100.00;101629.22;5115794;28;20039;-61
2021/12/12 04:30:24;;;;;;;52.97;34.38;;;;;;;6.75;100.00;101635.34;5097298;28;20036;-57
2021/12/12 04:32:50;;;;;;;55.42;35.25;;;;;;;6.75;100.00;101645.81;5115529;28;20496;-60
2021/12/12 04:35:21;;;;;;;57.13;38.15;;;;;;;6.68;100.00;101636.25;5115448;28;20133;-58
2021/12/12 04:37:48;;;;;;;62.50;37.60;;;;;;;6.75;100.00;101653.66;5115339;28;20053;-56
2021/12/12 04:40:17;;;;;;;60.13;38.45;;;;;;;6.38;100.00;101568.38;5115674;28;20031;-59
2021/12/12 04:42:44;;;;;;;70.00;40.75;;;;;;;6.76;100.00;101629.25;5115455;28;20035;-60
2021/12/12 04:45:56;;;;;;;59.90;40.25;;;;;;;6.80;100.00;101629.22;5097118;28;20144;-59
2021/12/12 04:51:17;;;;;;;69.25;40.35;;;;;;;6.85;100.00;101651.88;5100038;28;20038;-59
2021/12/12 04:53:43;;;;;;;65.03;41.08;;;;;;;6.88;100.00;101657.09;5096989;28;20032;-59
2021/12/12 04:56:31;;;;;;;81.25;43.45;;;;;;;6.83;100.00;101659.72;5115204;28;20031;-56
2021/12/12 04:59:20;;;;;;;74.32;42.33;;;;;;;6.45;100.00;101594.47;5115298;28;20028;-60
2021/12/12 05:01:45;;;;;;;67.90;40.50;;;;;;;6.87;100.00;101656.22;5096964;28;20360;-58
2021/12/12 05:04:25;;;;;;;89.72;44.95;;;;;;;6.89;100.00;101672.78;5096745;28;20057;-60
2021/12/12 05:06:58;;;;;;;82.80;43.33;;;;;;;6.89;100.00;101667.56;5114949;28;20028;-59
2021/12/12 05:09:26;;;;;;;81.47;44.55;;;;;;;6.45;100.00;101599.69;5096847;28;20059;-58
2021/12/12 05:12:01;;;;;;;83.28;43.15;;;;;;;6.84;100.00;101666.72;5114936;28;20027;-59
2021/12/12 05:14:29;;;;;;;81.53;44.53;;;;;;;6.92;100.00;101679.78;5096611;28;20148;-56
2021/12/12 05:17:10;;;;;;;82.05;43.72;;;;;;;6.91;100.00;101672.78;5079704;28;20055;-58
2021/12/12 05:19:37;;;;;;;86.80;44.20;;;;;;;6.95;100.00;101674.50;5096596;28;20023;-58
2021/12/12 05:22:10;;;;;;;87.50;43.97;;;;;;;6.97;100.00;101668.41;5096706;28;20019;-60
2021/12/12 05:24:36;;;;;;;83.30;44.97;;;;;;;7.00;100.00;101672.75;5096505;28;20054;-58
2021/12/12 05:27:06;;;;;;;94.18;45.05;;;;;;;7.00;100.00;101693.69;5096519;28;20108;-58
2021/12/12 05:29:54;;;;;;;81.95;47.65;;;;;;;7.01;100.00;101687.56;5096222;28;20077;-58
2021/12/12 05:32:21;;;;;;;87.45;46.67;;;;;;;6.68;100.00;101620.56;5101228;28;20048;-59
2021/12/12 05:34:49;;;;;;;94.30;47.88;;;;;;;7.03;100.00;101684.09;5095969;28;20494;-58
2021/12/12 05:37:16;;;;;;;108.38;49.80;;;;;;;7.07;100.00;101690.16;5096343;28;20035;-57
2021/12/12 05:39:42;;;;;;;104.03;48.67;;;;;;;6.98;100.00;101669.25;5114195;28;20032;-53
2021/12/12 05:42:08;;;;;;;100.45;48.42;;;;;;;7.02;100.00;101671.00;5114546;28;20062;-59
2021/12/12 05:44:34;;;;;;;107.13;49.50;;;;;;;6.86;100.00;101637.94;5095787;28;20028;-56
2021/12/12 05:47:02;;;;;;;107.53;49.78;;;;;;;7.08;100.00;101682.31;5079369;28;20027;-55
2021/12/12 05:49:28;;;;;;;99.45;48.67;;;;;;;7.09;100.00;101684.03;5114129;28;20115;-58
2021/12/12 05:51:53;;;;;;;107.82;51.80;;;;;;;6.68;100.00;101608.31;5078919;28;20118;-58
2021/12/12 05:54:19;;;;;;;107.57;49.80;;;;;;;7.13;100.00;101684.91;5095770;28;20036;-57
2021/12/12 05:56:46;;;;;;;100.35;49.08;;;;;;;7.07;100.00;101680.56;5113898;28;20364;-58
2021/12/12 05:59:12;;;;;;;106.72;51.03;;;;;;;7.19;100.00;101696.22;5095786;28;20036;-58
2021/12/12 06:01:39;;;;;;;113.75;51.40;;;;;;;7.20;100.00;101694.47;5095791;28;20039;-59
2021/12/12 06:04:05;;;;;;;104.95;50.42;;;;;;;6.56;100.00;101586.59;5078815;28;20034;-57
2021/12/12 06:06:35;;;;;;;128.77;52.72;;;;;;;7.24;100.00;101714.50;5113852;28;20035;-58
2021/12/12 06:09:03;;;;;;;126.45;56.00;;;;;;;6.85;100.00;101642.28;5095875;28;20031;-58
2021/12/12 06:11:30;;;;;;;113.72;51.70;;;;;;;7.22;100.00;101711.91;5113023;28;20028;-57
2021/12/12 06:13:56;;;;;;;117.13;53.50;;;;;;;7.24;100.00;101712.78;5078501;28;20036;-58
2021/12/12 06:16:23;;;;;;;110.55;51.60;;;;;;;7.25;100.00;101700.56;5095475;28;20092;-58
2021/12/12 06:18:51;;;;;;;118.25;53.35;;;;;;;6.74;100.00;101612.69;5095605;28;20027;-57
2021/12/12 06:21:17;;;;;;;121.63;51.88;;;;;;;7.33;100.00;101698.75;5113459;28;20030;-58
2021/12/12 06:23:42;;;;;;;109.80;53.33;;;;;;;7.35;100.00;101707.50;5095443;28;20035;-59
2021/12/12 06:26:08;;;;;;;120.85;52.80;;;;;;;7.42;100.00;101717.03;5095146;28;20126;-53
2021/12/12 06:28:36;;;;;;;121.38;54.25;;;;;;;7.42;100.00;101727.53;5113744;28;20046;-56
2021/12/12 06:31:03;;;;;;;129.27;52.70;;;;;;;7.29;100.00;101681.34;5113404;28;20039;-57
2021/12/12 06:33:28;;;;;;;117.38;52.42;;;;;;;7.46;100.00;101726.63;5113164;28;20027;-57
2021/12/12 06:35:54;;;;;;;126.38;54.25;;;;;;;7.51;100.00;101714.38;5091358;28;20558;-60
2021/12/12 06:38:21;;;;;;;121.32;53.00;;;;;;;7.36;100.00;101694.38;5091747;28;20138;-62
2021/12/12 06:40:47;;;;;;;119.13;52.40;;;;;;;7.54;100.00;101716.09;5091909;28;20032;-61
2021/12/12 06:43:16;;;;;;;132.27;55.03;;;;;;;7.59;100.00;101717.81;5093018;28;20039;-58
2021/12/12 06:45:42;;;;;;;115.00;52.40;;;;;;;7.60;100.00;101716.94;5092777;28;20539;-59
2021/12/12 06:48:09;;;;;;;119.22;52.47;;;;;;;7.26;100.00;101658.66;5092873;28;20119;-58
2021/12/12 06:50:37;;;;;;;118.93;50.40;;;;;;;7.50;100.00;101702.16;5092813;28;20394;-60
2021/12/12 06:53:03;;;;;;;117.65;52.15;;;;;;;7.63;100.00;101724.78;5092662;28;20034;-59
2021/12/12 06:55:29;;;;;;;135.02;53.80;;;;;;;7.67;100.00;101726.53;5091434;28;20122;-59
2021/12/12 06:57:55;;;;;;;133.25;53.47;;;;;;;7.62;100.00;101725.66;5091524;28;20051;-58
2021/12/12 07:00:22;;;;;;;111.57;48.92;;;;;;;7.69;100.00;101721.25;5092595;28;20383;-60
2021/12/12 07:02:48;;;;;;;137.35;53.88;;;;;;;7.34;100.00;101661.22;5091306;28;20039;-58
2021/12/12 07:05:17;;;;;;;136.43;52.00;;;;;;;7.35;100.00;101676.91;5091255;28;20036;-58
2021/12/12 07:07:44;;;;;;;129.25;53.45;;;;;;;7.72;100.00;101729.09;5092359;28;20531;-58
2021/12/12 07:10:11;;;;;;;140.55;54.72;;;;;;;7.71;100.00;101722.97;5092583;28;20024;-59
2021/12/12 07:12:39;;;;;;;145.68;54.75;;;;;;;7.46;100.00;101679.50;5091079;28;20032;-57
2021/12/12 07:15:05;;;;;;;128.20;53.08;;;;;;;7.78;100.00;101739.53;5091330;28;20032;-58
2021/12/12 07:17:31;;;;;;;135.48;54.67;;;;;;;7.78;100.00;101745.66;5090914;28;20040;-60
2021/12/12 07:19:56;;;;;;;146.93;56.00;;;;;;;7.78;100.00;101739.53;5091132;28;20341;-59
2021/12/12 07:22:24;;;;;;;126.25;52.92;;;;;;;7.81;100.00;101744.75;5090887;28;20066;-58
2021/12/12 07:24:49;;;;;;;139.85;54.55;;;;;;;7.87;100.00;101770.94;5095256;28;20073;-59
2021/12/12 07:27:16;;;;;;;115.18;53.17;;;;;;;7.90;100.00;101750.81;5095156;28;20032;-59
2021/12/12 07:29:42;;;;;;;138.00;52.80;;;;;;;7.86;100.00;101737.72;5096468;28;20035;-60
2021/12/12 07:32:08;;;;;;;123.88;52.40;;;;;;;7.95;100.00;101750.78;5096401;28;20037;-59
2021/12/12 07:34:34;;;;;;;134.63;54.47;;;;;;;7.62;100.00;101691.59;5095024;28;20081;-58
2021/12/12 07:37:02;;;;;;;131.65;52.85;;;;;;;7.96;100.00;101739.41;5094840;28;20126;-59
2021/12/12 07:39:29;;;;;;;141.02;54.78;;;;;;;7.97;100.00;101735.06;5096470;28;20063;-58
2021/12/12 07:41:56;;;;;;;146.68;55.60;;;;;;;7.96;100.00;101741.16;5096314;28;20533;-59
2021/12/12 07:44:26;;;;;;;142.77;56.67;;;;;;;8.00;100.00;101743.72;5096224;28;20419;-59
2021/12/12 07:46:52;;;;;;;155.00;57.25;;;;;;;8.01;100.00;101752.47;5096208;28;20167;-60
2021/12/12 07:49:20;;;;;;;140.77;56.55;;;;;;;7.92;100.00;101746.44;5095960;28;20485;-59
2021/12/12 07:51:46;;;;;;;129.73;54.97;;;;;;;7.69;100.00;101693.31;5096346;28;20032;-60
2021/12/12 07:54:11;;;;;;;151.43;55.83;;;;;;;7.81;100.00;101721.19;5094794;28;20043;-60
2021/12/12 07:56:40;;;;;;;148.40;56.40;;;;;;;8.08;100.00;101760.31;5094852;28;20059;-58
2021/12/12 07:59:07;;;;;;;163.10;57.10;;;;;;;8.07;100.00;101773.41;5095827;28;20479;-58
2021/12/12 08:01:33;;;;;;;156.98;56.00;;;;;;;8.10;100.00;101769.03;5095535;28;20032;-57
2021/12/12 08:03:59;;;;;;;160.07;57.05;;;;;;;7.89;100.00;101725.47;5094440;28;20036;-58
2021/12/12 08:06:25;;;;;;;146.70;55.03;;;;;;;8.15;100.00;101769.84;5094210;28;20077;-59
2021/12/12 08:08:52;;;;;;;139.77;54.40;;;;;;;8.19;100.00;101773.31;5094576;28;20036;-59
2021/12/12 08:11:26;;;;;;;139.65;54.28;;;;;;;7.90;100.00;101728.97;5095642;28;20478;-58
2021/12/12 08:13:52;;;;;;;145.65;57.28;;;;;;;8.24;100.00;101789.88;5095367;28;20024;-60
2021/12/12 08:16:18;;;;;;;139.85;52.65;;;;;;;8.18;100.00;101782.06;5094241;28;20020;-58
2021/12/12 08:18:44;;;;;;;145.63;52.42;;;;;;;8.29;100.00;101791.63;5094037;28;20106;-58
2021/12/12 08:21:10;;;;;;;142.23;53.92;;;;;;;8.31;100.00;101792.50;5093958;28;20077;-58
2021/12/12 08:23:37;;;;;;;146.07;52.30;;;;;;;8.32;100.00;101799.47;5094411;28;20032;-59
2021/12/12 08:26:05;;;;;;;130.43;52.20;;;;;;;7.92;100.00;101722.84;5094364;28;20394;-57
2021/12/12 08:28:31;;;;;;;158.43;54.60;;;;;;;8.35;100.00;101809.94;5095475;28;20455;-58
2021/12/12 08:30:57;;;;;;;142.43;51.63;;;;;;;8.01;100.00;101736.75;5093958;28;20067;-58
2021/12/12 08:33:23;;;;;;;161.82;54.55;;;;;;;8.36;100.00;101802.94;5095233;28;20032;-56
2021/12/12 08:35:49;;;;;;;144.68;51.63;;;;;;;8.39;100.00;101803.78;5099444;28;20093;-54
2021/12/12 08:38:14;;;;;;;132.02;48.67;;;;;;;8.17;100.00;101767.22;5080458;28;20425;-57
2021/12/12 08:40:46;;;;;;;117.75;48.92;;;;;;;8.43;100.00;101810.75;5115633;28;20066;-56
2021/12/12 08:43:13;;;;;;;119.20;46.50;;;;;;;8.46;100.00;101808.09;5097078;28;20023;-57
2021/12/12 08:45:51;;;;;;;116.32;45.25;;;;;;;8.49;100.00;101825.59;5097038;28;20470;-58
2021/12/12 08:48:18;;;;;;;91.90;41.38;;;;;;;8.24;100.00;101766.28;5115330;28;20039;-59
2021/12/12 08:50:47;;;;;;;102.88;42.58;;;;;;;8.53;100.00;101815.91;5097299;28;20076;-58
2021/12/12 08:53:14;;;;;;;102.28;41.17;;;;;;;8.49;100.00;101808.06;5115595;28;20089;-59
2021/12/12 08:55:43;;;;;;;88.05;39.63;;;;;;;8.62;100.00;101828.97;5115191;28;20051;-61
2021/12/12 08:58:15;;;;;;;86.32;39.80;;;;;;;8.66;100.00;101833.31;5114825;28;20108;-60
2021/12/12 09:00:52;;;;;;;86.70;38.50;;;;;;;8.38;100.00;101777.56;5096822;28;20048;-58
2021/12/12 09:03:21;;;;;;;93.80;37.47;;;;;;;8.68;100.00;101829.78;5115068;28;20024;-61
2021/12/12 09:05:47;;;;;;;73.95;35.67;;;;;;;8.75;100.00;101838.47;5096817;28;20058;-57
2021/12/12 09:08:18;;;;;;;78.72;35.45;;;;;;;8.50;100.00;101787.94;5079978;28;20475;-60
2021/12/12 09:10:48;;;;;;;62.30;32.90;;;;;;;8.52;100.00;101787.94;5114788;28;20031;-59
2021/12/12 09:13:18;;;;;;;74.05;32.60;;;;;;;8.67;100.00;101812.28;5096766;28;20034;-58
2021/12/12 09:15:48;;;;;;;53.28;30.25;;;;;;;8.83;100.00;101840.16;5096786;28;20521;-57
2021/12/12 09:18:20;;;;;;;51.47;28.52;;;;;;;8.88;100.00;101840.09;5096583;28;20024;-58
2021/12/12 09:20:52;;;;;;;67.13;31.35;;;;;;;8.58;100.00;101790.53;5096390;28;20027;-59
2021/12/12 09:23:32;;;;;;;57.08;28.92;;;;;;;8.89;100.00;101845.34;5114770;28;20034;-58
2021/12/12 09:26:03;;;;;;;51.50;28.25;;;;;;;8.58;100.00;101790.53;5114726;28;20019;-58
2021/12/12 09:28:45;;;;;;;50.45;27.63;;;;;;;8.99;100.00;101859.22;5096088;28;20043;-58
2021/12/12 09:31:15;;;;;;;50.72;28.23;;;;;;;8.61;100.00;101788.72;5096023;28;20504;-59
2021/12/12 09:33:56;;;;;;;38.78;23.55;;;;;;;9.07;100.00;101857.44;5113961;28;20361;-56
2021/12/12 09:36:42;;;;;;;42.28;26.40;;;;;;;9.12;100.00;101860.88;5113608;28;20054;-60
2021/12/12 09:39:17;;;;;;;46.65;25.73;;;;;;;8.75;100.00;101791.22;5114322;28;20027;-55
2021/12/12 09:42:00;;;;;;;42.40;24.77;;;;;;;9.15;100.00;101873.97;5095686;28;20027;-55
2021/12/12 09:44:35;;;;;;;39.22;22.88;;;;;;;9.11;100.00;101877.50;5113972;28;20367;-59
2021/12/12 09:47:30;;;;;;;42.00;23.85;;;;;;;9.13;100.00;101872.25;5095092;28;20372;-56
2021/12/12 09:53:08;;;;;;;38.83;22.52;;;;;;;9.13;100.00;101861.75;5114273;28;20046;-56
2021/12/12 09:55:42;;;;;;;33.70;22.90;;;;;;;9.05;100.00;101844.28;5113977;28;20036;-56
2021/12/12 09:58:35;;;;;;;35.78;22.17;;;;;;;9.14;100.00;101868.72;5095730;28;20040;-58
2021/12/12 10:01:26;;;;;;;32.08;21.50;;;;;;;8.87;100.00;101814.75;5087180;28;20479;-58
2021/12/12 10:04:05;;;;;;;32.05;21.65;;;;;;;9.12;100.00;101876.63;5105636;28;20088;-58
2021/12/12 10:07:02;;;;;;;33.83;21.77;;;;;;;9.19;100.00;101864.31;5095535;28;20019;-58
2021/12/12 10:09:58;;;;;;;36.28;21.35;;;;;;;9.17;100.00;101868.69;5095529;28;20038;-57
2021/12/12 10:12:31;;;;;;;30.48;19.98;;;;;;;9.13;100.00;101865.25;5106566;28;20042;-57
2021/12/12 10:14:57;;;;;;;33.08;20.77;;;;;;;9.14;100.00;101866.97;5095610;28;20057;-58
2021/12/12 10:17:35;;;;;;;32.22;21.13;;;;;;;9.08;100.00;101863.56;5113591;28;20031;-54
2021/12/12 10:20:07;;;;;;;34.58;21.65;;;;;;;9.15;100.00;101873.09;5113739;28;20485;-57
2021/12/12 10:22:35;;;;;;;31.70;20.02;;;;;;;9.17;100.00;101873.94;5114002;28;20073;-58
2021/12/12 10:25:13;;;;;;;28.73;19.73;;;;;;;9.16;100.00;101870.47;5110926;28;20043;-57
2021/12/12 10:27:46;;;;;;;33.75;20.70;;;;;;;8.84;100.00;101828.75;5093614;28;20390;-57
2021/12/12 10:30:17;;;;;;;39.63;22.40;;;;;;;8.88;100.00;101821.72;5095055;28;20038;-58
2021/12/12 10:33:08;;;;;;;33.90;20.90;;;;;;;9.19;100.00;101882.69;5095170;28;20037;-58
2021/12/12 10:35:41;;;;;;;35.05;21.33;;;;;;;9.13;100.00;101860.00;5112978;28;20626;-58
2021/12/12 10:38:26;;;;;;;40.35;21.73;;;;;;;9.22;100.00;101870.41;5094805;28;20035;-57
2021/12/12 10:41:03;;;;;;;37.95;22.58;;;;;;;9.25;100.00;101878.22;5113060;28;20254;-59
2021/12/12 10:43:42;;;;;;;32.22;20.45;;;;;;;9.11;100.00;101853.03;5113060;28;20035;-58
2021/12/12 10:46:19;;;;;;;31.00;19.50;;;;;;;9.32;100.00;101873.78;5094799;28;20399;-58
2021/12/12 10:49:13;;;;;;;38.47;20.85;;;;;;;9.33;100.00;101886.06;5094774;28;20032;-57
2021/12/12 10:51:45;;;;;;;35.72;21.67;;;;;;;9.34;100.00;101874.66;5095114;28;20032;-56
2021/12/12 10:54:15;;;;;;;35.92;21.15;;;;;;;9.05;100.00;101819.78;5094349;28;20381;-59
2021/12/12 10:57:03;;;;;;;34.75;21.65;;;;;;;9.42;100.00;101881.56;5094455;28;20031;-59
2021/12/12 10:59:52;;;;;;;37.28;21.33;;;;;;;9.46;100.00;101878.00;5094556;28;20059;-56
2021/12/12 11:02:20;;;;;;;33.83;21.17;;;;;;;9.44;100.00;101865.78;5112907;28;20040;-57
2021/12/12 11:05:00;;;;;;;34.22;20.42;;;;;;;9.56;100.00;101882.28;5094606;28;20036;-58
2021/12/12 11:08:03;;;;;;;28.50;19.98;;;;;;;9.55;100.00;101880.53;5096307;28;20058;-60
2021/12/12 11:10:32;;;;;;;36.72;22.27;;;;;;;9.59;100.00;101878.75;5049296;28;20040;-60
2021/12/12 11:13:13;;;;;;;30.02;19.08;;;;;;;9.59;100.00;101882.25;5074281;28;20028;-58
2021/12/12 11:15:57;;;;;;;30.95;20.23;;;;;;;9.66;100.00;101884.81;5057671;28;20079;-56
2021/12/12 11:18:31;;;;;;;28.23;18.95;;;;;;;9.40;100.00;101837.78;5070929;28;20041;-59
2021/12/12 11:21:03;;;;;;;31.92;19.27;;;;;;;9.74;100.00;101896.09;5071823;28;20664;-58
2021/12/12 11:23:32;;;;;;;34.58;19.08;;;;;;;9.74;100.00;101878.56;5081552;28;20032;-58
2021/12/12 11:26:04;;;;;;;25.67;17.45;;;;;;;9.47;100.00;101842.97;5073616;28;20036;-58
2021/12/12 11:28:35;;;;;;;22.13;14.45;;;;;;;9.73;100.00;101886.44;5092081;28;20040;-56
2021/12/12 11:31:12;;;;;;;21.35;15.13;;;;;;;9.80;100.00;101893.38;5074367;28;20054;-60
2021/12/12 11:33:40;;;;;;;26.35;15.98;;;;;;;9.63;100.00;101855.91;5092793;28;20044;-59
2021/12/12 11:36:12;;;;;;;23.38;15.13;;;;;;;9.84;100.00;101882.78;5091456;28;20399;-60
2021/12/12 11:38:43;;;;;;;22.40;13.27;;;;;;;9.90;100.00;101898.50;5090723;28;20040;-57
2021/12/12 11:41:08;;;;;;;;;;;;;;;9.96;100.00;101898.41;5074276;28;20028;-57